Time;durP1;ratioP1;P1;durP2;ratioP2;P2;SDS_P1;SDS_P2;PMS_P1;PMS_P2;Temp;Humidity;BMP_temperature;BMP_pressure;BME280_temperature;BME280_humidity;BME280_pressure;Samples;Min_cycle;Max_cycle;Signal;HPM_P1;HPM_P2
2022/01/14 00:01:32;;;;;;;16.30;9.13;;;21.00;43.80;;;;;;4992195;28;88533;-65
2022/01/14 00:04:00;;;;;;;11.87;7.60;;;21.00;43.80;;;;;;4993384;28;89027;-65
2022/01/14 00:06:28;;;;;;;11.43;6.87;;;21.00;43.80;;;;;;4998292;28;88682;-65
2022/01/14 00:09:04;;;;;;;9.93;6.37;;;20.90;43.70;;;;;;4999726;28;88508;-65
2022/01/14 00:11:34;;;;;;;7.90;6.17;;;20.90;43.80;;;;;;4995387;28;91836;-66
2022/01/14 00:14:20;;;;;;;10.33;6.60;;;20.90;43.80;;;;;;4995038;28;89093;-65
2022/01/14 00:16:52;;;;;;;12.33;6.97;;;20.90;43.80;;;;;;4994466;28;88804;-65
2022/01/14 00:19:20;;;;;;;9.60;6.33;;;20.90;43.80;;;;;;4996648;28;88455;-65
2022/01/14 00:21:48;;;;;;;10.40;6.43;;;20.90;43.80;;;;;;4996208;28;89501;-65
2022/01/14 00:24:28;;;;;;;9.63;6.07;;;20.90;44.40;;;;;;4998229;28;89993;-65
2022/01/14 00:32:38;;;;;;;8.27;5.10;;;20.80;43.80;;;;;;4981821;28;88981;-65
2022/01/14 00:35:06;;;;;;;8.70;5.50;;;20.80;43.80;;;;;;4995025;28;90085;-66
2022/01/14 00:37:34;;;;;;;8.57;4.90;;;20.80;43.90;;;;;;4998329;28;88550;-65
2022/01/14 00:40:03;;;;;;;8.40;5.70;;;20.80;43.90;;;;;;5000095;28;88559;-65
2022/01/14 00:42:31;;;;;;;9.77;5.77;;;20.80;43.90;;;;;;5000599;28;88580;-66
2022/01/14 00:45:00;;;;;;;7.23;5.10;;;20.80;43.90;;;;;;4999878;28;89607;-65
2022/01/14 00:47:28;;;;;;;9.13;5.03;;;20.80;43.80;;;;;;5000462;28;88439;-66
2022/01/14 00:49:56;;;;;;;7.23;4.33;;;20.80;43.90;;;;;;4995609;28;88467;-66
2022/01/14 00:52:24;;;;;;;6.40;4.40;;;20.80;43.80;;;;;;4995681;28;90159;-66
2022/01/14 00:54:53;;;;;;;7.37;4.93;;;20.80;43.80;;;;;;4994619;28;90434;-66
2022/01/14 00:59:13;;;;;;;7.27;4.23;;;20.80;43.80;;;;;;4994933;28;88432;-66
2022/01/14 01:00:16;;;;;;;7.00;4.60;;;20.80;43.80;;;;;;4993409;28;89202;-66
2022/01/14 01:02:44;;;;;;;5.60;4.00;;;20.70;43.70;;;;;;4991525;28;90680;-65
2022/01/14 01:05:13;;;;;;;6.53;4.27;;;20.70;43.70;;;;;;4997590;28;89447;-65
2022/01/14 01:07:42;;;;;;;9.13;4.30;;;20.70;43.70;;;;;;4991874;28;90060;-66
2022/01/14 01:10:11;;;;;;;8.00;4.07;;;20.70;43.70;;;;;;4997475;28;88513;-66
2022/01/14 01:12:47;;;;;;;7.57;4.07;;;20.70;43.80;;;;;;4996162;28;90637;-66
2022/01/14 01:15:17;;;;;;;6.07;3.83;;;20.70;43.80;;;;;;4997536;28;90144;-66
2022/01/14 01:17:46;;;;;;;4.97;3.70;;;20.70;43.70;;;;;;4994020;28;88929;-65
2022/01/14 01:20:18;;;;;;;6.97;3.73;;;20.70;43.80;;;;;;4997138;28;88503;-65
2022/01/14 01:22:47;;;;;;;5.37;3.57;;;20.70;43.80;;;;;;4993186;28;90636;-65
2022/01/14 01:25:17;;;;;;;5.93;3.37;;;20.60;43.70;;;;;;4989956;28;90101;-65
2022/01/14 01:27:47;;;;;;;5.73;3.30;;;20.60;43.70;;;;;;4986402;28;89281;-65
2022/01/14 01:30:47;;;;;;;5.67;3.40;;;20.60;43.70;;;;;;4994318;28;88702;-66
2022/01/14 01:33:06;;;;;;;6.30;4.00;;;20.60;43.70;;;;;;4987479;28;89509;-66
2022/01/14 01:35:35;;;;;;;6.90;3.37;;;20.60;43.70;;;;;;4996661;28;90198;-65
2022/01/14 01:38:03;;;;;;;4.70;3.23;;;20.60;43.70;;;;;;4994959;28;88552;-65
2022/01/14 01:40:31;;;;;;;4.00;3.20;;;20.60;43.70;;;;;;4992832;28;88478;-66
2022/01/14 01:43:02;;;;;;;6.03;4.00;;;20.60;43.70;;;;;;4990548;28;89868;-66
2022/01/14 01:45:31;;;;;;;6.93;4.20;;;20.60;43.70;;;;;;4994491;28;90549;-65
2022/01/14 01:47:59;;;;;;;8.27;4.73;;;20.60;43.70;;;;;;4988731;28;88819;-65
2022/01/14 01:50:29;;;;;;;7.40;4.10;;;20.60;43.70;;;;;;4996304;28;88445;-65
2022/01/14 01:52:57;;;;;;;6.43;4.70;;;20.60;43.70;;;;;;4996355;28;89395;-65
2022/01/14 01:55:26;;;;;;;7.10;5.57;;;20.60;43.70;;;;;;4986150;28;90149;-66
2022/01/14 01:57:54;;;;;;;7.83;5.37;;;20.50;44.30;;;;;;4990522;28;91621;-66
2022/01/14 02:00:23;;;;;;;9.77;5.73;;;20.50;43.60;;;;;;4994829;28;88639;-65
2022/01/14 02:02:53;;;;;;;9.10;5.80;;;20.50;43.60;;;;;;4996597;28;90447;-66
2022/01/14 02:05:22;;;;;;;9.13;6.13;;;20.50;43.60;;;;;;4986272;28;90076;-65
2022/01/14 02:07:50;;;;;;;7.17;5.47;;;20.50;43.60;;;;;;4985119;28;90904;-65
2022/01/14 02:10:19;;;;;;;9.80;6.27;;;20.50;43.60;;;;;;4985980;28;88403;-65
2022/01/14 02:12:50;;;;;;;9.10;5.93;;;20.50;43.70;;;;;;4993873;28;89411;-65
2022/01/14 02:18:38;;;;;;;9.93;6.57;;;20.50;43.70;;;;;;5070760;27;88648;-66
2022/01/14 02:24:07;;;;;;;11.43;6.43;;;20.40;43.50;;;;;;5066452;27;90404;-66
2022/01/14 02:26:38;;;;;;;14.27;6.87;;;20.40;43.60;;;;;;5064929;27;89167;-66
2022/01/14 02:29:06;;;;;;;11.20;6.50;;;20.40;43.60;;;;;;5062920;27;88794;-66
2022/01/14 02:31:33;;;;;;;10.53;7.63;;;20.40;43.60;;;;;;5063389;27;88472;-66
2022/01/14 02:34:04;;;;;;;11.03;6.93;;;20.40;43.60;;;;;;5066431;27;88719;-66
2022/01/14 02:36:34;;;;;;;10.53;7.07;;;20.40;43.70;;;;;;5070955;27;89934;-66
2022/01/14 02:39:02;;;;;;;13.00;6.87;;;20.40;43.70;;;;;;5072024;27;89750;-66
2022/01/14 02:41:30;;;;;;;11.07;6.70;;;20.40;43.60;;;;;;5068088;27;88498;-65
2022/01/14 02:44:04;;;;;;;11.40;6.53;;;20.40;43.70;;;;;;5075099;27;88585;-65
2022/01/14 02:46:37;;;;;;;9.43;6.23;;;20.30;43.60;;;;;;5068879;27;90926;-66
2022/01/14 02:49:05;;;;;;;11.70;7.33;;;20.40;43.70;;;;;;5070459;27;90008;-65
2022/01/14 02:51:34;;;;;;;12.37;7.67;;;20.40;43.90;;;;;;5073244;27;88593;-65
2022/01/14 02:54:13;;;;;;;14.13;7.60;;;20.30;43.60;;;;;;5077948;27;88599;-65
2022/01/14 02:56:43;;;;;;;12.23;7.80;;;20.40;43.70;;;;;;5077716;27;89724;-65
2022/01/14 02:59:11;;;;;;;14.87;8.43;;;20.30;43.60;;;;;;5075992;27;91759;-65
2022/01/14 03:01:39;;;;;;;11.43;7.43;;;20.30;43.60;;;;;;5071621;27;88497;-66
2022/01/14 03:04:07;;;;;;;11.67;7.77;;;20.30;43.60;;;;;;5077995;27;88687;-65
2022/01/14 03:06:37;;;;;;;10.17;7.90;;;20.30;43.60;;;;;;5076180;27;88227;-65
2022/01/14 03:09:05;;;;;;;12.23;7.87;;;20.30;43.60;;;;;;5076104;27;89536;-65
2022/01/14 03:11:35;;;;;;;13.57;8.63;;;20.30;43.60;;;;;;5077849;27;88571;-64
2022/01/14 03:14:04;;;;;;;13.47;8.63;;;20.30;43.60;;;;;;5077515;27;88576;-63
2022/01/14 03:16:38;;;;;;;14.67;8.23;;;20.20;43.50;;;;;;5071166;27;89569;-66
2022/01/14 03:19:10;;;;;;;13.57;8.73;;;20.30;43.60;;;;;;5077196;27;88861;-64
2022/01/14 03:21:41;;;;;;;13.23;7.90;;;20.20;43.50;;;;;;5077080;27;88391;-65
2022/01/14 03:24:19;;;;;;;16.77;8.73;;;20.20;43.50;;;;;;5077300;27;88602;-65
2022/01/14 03:26:48;;;;;;;11.97;8.27;;;20.20;43.50;;;;;;5078713;27;90579;-66
2022/01/14 03:29:16;;;;;;;11.20;8.43;;;20.20;43.50;;;;;;5049521;27;90154;-66
2022/01/14 03:31:44;;;;;;;12.33;8.43;;;20.20;43.50;;;;;;5064636;27;88399;-65
2022/01/14 03:34:12;;;;;;;11.37;8.30;;;20.20;43.50;;;;;;5055390;27;88357;-66
2022/01/14 03:36:41;;;;;;;13.93;8.37;;;20.20;43.50;;;;;;5058819;27;90856;-65
2022/01/14 03:39:18;;;;;;;12.17;7.97;;;20.20;43.50;;;;;;5054289;27;89045;-66
2022/01/14 03:41:46;;;;;;;13.57;7.67;;;20.20;43.50;;;;;;5063715;27;88243;-63
2022/01/14 03:44:14;;;;;;;13.30;8.50;;;20.10;43.50;;;;;;5047727;27;88602;-65
2022/01/14 03:46:42;;;;;;;13.07;8.50;;;20.10;43.50;;;;;;5061481;27;90562;-64
2022/01/14 03:49:10;;;;;;;11.30;7.10;;;20.10;43.50;;;;;;5060458;27;90078;-65
2022/01/14 03:51:38;;;;;;;13.13;7.53;;;20.10;43.50;;;;;;5062050;27;88387;-66
2022/01/14 03:54:07;;;;;;;11.17;7.10;;;20.10;43.50;;;;;;5059885;27;88750;-64
2022/01/14 03:56:36;;;;;;;11.63;7.30;;;20.10;44.10;;;;;;5044477;27;93728;-64
2022/01/14 03:59:04;;;;;;;12.23;7.37;;;20.10;43.50;;;;;;5049697;27;90191;-65
2022/01/14 04:01:32;;;;;;;13.03;8.13;;;20.10;43.50;;;;;;5049296;27;88480;-65
2022/01/14 04:04:00;;;;;;;11.27;7.17;;;20.10;43.50;;;;;;5059410;27;88758;-66
2022/01/14 04:06:30;;;;;;;11.93;7.50;;;20.10;43.50;;;;;;5047894;27;92546;-65
2022/01/14 04:08:58;;;;;;;11.27;6.07;;;20.10;43.50;;;;;;5052525;27;89047;-66
2022/01/14 04:11:29;;;;;;;11.93;7.37;;;20.10;43.50;;;;;;5061333;27;88524;-65
2022/01/14 04:14:07;;;;;;;8.97;6.60;;;20.10;43.50;;;;;;5046497;27;88689;-65
2022/01/14 04:16:35;;;;;;;10.80;6.67;;;20.10;43.50;;;;;;5047691;27;90960;-63
2022/01/14 04:19:03;;;;;;;9.90;6.57;;;20.10;43.50;;;;;;5044080;27;89888;-63
2022/01/14 04:21:31;;;;;;;9.30;6.37;;;20.10;43.50;;;;;;5061132;27;88338;-63
2022/01/14 04:23:59;;;;;;;8.20;6.17;;;20.00;43.40;;;;;;5062644;27;88496;-63
2022/01/14 04:26:29;;;;;;;7.33;5.97;;;20.00;43.50;;;;;;5045111;27;90733;-66
2022/01/14 04:28:57;;;;;;;9.70;6.20;;;20.00;43.50;;;;;;5047158;27;88865;-65
2022/01/14 04:31:25;;;;;;;7.70;5.63;;;20.00;43.50;;;;;;5056399;27;89486;-65
2022/01/14 04:33:53;;;;;;;10.43;6.73;;;20.00;43.50;;;;;;5061607;27;88352;-65
2022/01/14 04:36:21;;;;;;;10.93;6.40;;;20.00;44.20;;;;;;5062177;27;92317;-65
2022/01/14 04:38:49;;;;;;;9.03;5.43;;;20.00;43.50;;;;;;5059431;27;89127;-65
2022/01/14 04:41:17;;;;;;;7.73;5.20;;;20.00;43.50;;;;;;5049398;27;88396;-65
2022/01/14 04:43:46;;;;;;;7.53;5.33;;;20.00;43.50;;;;;;5055152;27;88587;-65
2022/01/14 04:46:36;;;;;;;8.40;5.77;;;20.00;43.50;;;;;;5047654;27;89832;-65
2022/01/14 04:49:03;;;;;;;9.30;5.70;;;20.00;43.50;;;;;;5062464;27;88852;-65
2022/01/14 04:51:31;;;;;;;7.97;5.20;;;19.90;43.50;;;;;;5062896;27;88668;-65
2022/01/14 04:53:59;;;;;;;8.50;5.23;;;20.00;43.50;;;;;;5058807;27;88459;-65
2022/01/14 04:56:27;;;;;;;9.07;4.97;;;19.90;43.50;;;;;;5041924;27;90851;-65
2022/01/14 04:58:57;;;;;;;7.27;5.27;;;20.00;43.50;;;;;;5054806;27;90479;-65
2022/01/14 05:01:26;;;;;;;6.80;5.50;;;19.90;43.50;;;;;;5044720;27;88535;-64
2022/01/14 05:03:56;;;;;;;9.33;5.07;;;19.90;43.50;;;;;;5055393;27;88488;-65
2022/01/14 05:06:24;;;;;;;9.30;5.83;;;20.00;43.50;;;;;;5056940;27;89748;-65
2022/01/14 05:08:52;;;;;;;8.27;5.43;;;19.90;43.50;;;;;;5050882;27;88746;-64
2022/01/14 05:11:36;;;;;;;7.17;4.43;;;19.90;43.50;;;;;;5062575;27;88405;-65
2022/01/14 05:14:05;;;;;;;6.50;4.70;;;19.90;44.20;;;;;;5042765;27;88556;-64
2022/01/14 05:16:33;;;;;;;5.70;4.33;;;19.90;43.50;;;;;;5046134;27;89518;-65
2022/01/14 05:19:01;;;;;;;7.23;4.20;;;19.90;43.50;;;;;;5055877;27;89898;-65
2022/01/14 05:21:29;;;;;;;5.93;3.40;;;19.90;43.50;;;;;;5042879;27;88423;-65
2022/01/14 05:23:57;;;;;;;6.77;4.40;;;19.90;43.50;;;;;;5052250;27;88480;-65
2022/01/14 05:26:25;;;;;;;6.87;4.33;;;19.90;43.50;;;;;;5041819;27;89587;-65
2022/01/14 05:28:53;;;;;;;7.17;4.60;;;19.90;43.50;;;;;;5050692;27;89872;-65
2022/01/14 05:31:40;;;;;;;5.60;4.10;;;19.90;43.50;;;;;;5052249;27;88581;-65
2022/01/14 05:34:08;;;;;;;5.50;4.00;;;19.80;43.40;;;;;;5055612;27;88404;-64
2022/01/14 05:36:36;;;;;;;5.37;3.77;;;19.90;43.50;;;;;;5042604;27;90614;-65
2022/01/14 05:39:04;;;;;;;6.37;4.47;;;19.80;43.40;;;;;;5055542;27;89991;-65
2022/01/14 05:41:32;;;;;;;5.13;3.60;;;19.80;43.50;;;;;;5041759;27;88374;-65
2022/01/14 05:44:01;;;;;;;5.23;3.37;;;19.80;43.50;;;;;;5042929;27;88595;-65
2022/01/14 05:46:30;;;;;;;6.70;3.93;;;19.80;43.50;;;;;;5050411;27;91155;-65
2022/01/14 05:49:10;;;;;;;6.17;4.07;;;19.80;43.50;;;;;;5050758;27;90068;-65
2022/01/14 05:51:39;;;;;;;4.83;3.20;;;19.80;43.50;;;;;;5061443;27;88239;-65
2022/01/14 05:54:07;;;;;;;3.70;2.73;;;19.80;43.50;;;;;;5049782;27;88591;-65
2022/01/14 05:56:35;;;;;;;6.20;3.83;;;19.70;43.40;;;;;;5043376;27;89526;-64
2022/01/14 05:59:03;;;;;;;5.27;3.37;;;19.80;43.50;;;;;;5043338;27;89120;-63
2022/01/14 06:01:32;;;;;;;5.63;3.53;;;19.70;43.50;;;;;;5047460;27;89402;-63
2022/01/14 06:04:00;;;;;;;4.30;3.03;;;19.70;43.50;;;;;;5042670;27;88400;-65
2022/01/14 06:06:28;;;;;;;9.47;4.20;;;19.80;43.50;;;;;;5054159;27;90971;-63
2022/01/14 06:08:56;;;;;;;6.53;3.30;;;19.80;43.50;;;;;;5043560;27;90055;-64
2022/01/14 06:11:25;;;;;;;4.43;3.33;;;19.70;43.40;;;;;;5048564;27;88587;-64
2022/01/14 06:13:53;;;;;;;4.13;3.33;;;19.80;43.50;;;;;;5061926;27;88531;-64
2022/01/14 06:16:21;;;;;;;4.40;3.03;;;19.80;43.50;;;;;;5051087;27;90775;-63
2022/01/14 06:18:50;;;;;;;5.63;3.70;;;19.70;43.50;;;;;;5047319;27;88780;-63
2022/01/14 06:21:18;;;;;;;4.97;2.97;;;19.70;43.50;;;;;;5056987;27;89990;-64
2022/01/14 06:23:46;;;;;;;5.30;3.60;;;19.70;43.50;;;;;;5058562;27;88631;-63
2022/01/14 06:26:23;;;;;;;4.93;3.07;;;19.70;43.50;;;;;;5051272;27;89720;-64
2022/01/14 06:28:51;;;;;;;4.20;2.97;;;19.70;43.50;;;;;;5050623;27;90222;-63
2022/01/14 06:31:19;;;;;;;5.47;3.30;;;19.70;43.50;;;;;;5056034;27;88413;-63
2022/01/14 06:33:47;;;;;;;3.77;2.90;;;19.70;43.50;;;;;;5049460;27;88539;-64
2022/01/14 06:36:17;;;;;;;3.57;3.00;;;19.70;43.50;;;;;;5040143;28;93065;-64
2022/01/14 06:38:45;;;;;;;4.87;2.80;;;19.70;43.50;;;;;;5047268;27;89477;-63
2022/01/14 06:41:13;;;;;;;3.67;2.40;;;19.60;43.50;;;;;;5046943;27;88532;-64
2022/01/14 06:43:41;;;;;;;4.33;2.77;;;19.70;43.50;;;;;;5042072;27;88333;-65
2022/01/14 06:46:09;;;;;;;3.67;2.83;;;19.70;43.60;;;;;;5042867;27;90490;-64
2022/01/14 06:48:37;;;;;;;6.60;2.97;;;19.60;43.50;;;;;;5047283;27;88707;-63
2022/01/14 06:51:12;;;;;;;4.20;3.23;;;19.70;43.60;;;;;;5049972;27;88565;-64
2022/01/14 06:53:47;;;;;;;3.80;2.70;;;19.60;43.50;;;;;;5054464;27;88207;-64
2022/01/14 06:56:15;;;;;;;3.60;2.47;;;19.60;43.50;;;;;;5050595;27;93693;-64
2022/01/14 06:58:43;;;;;;;3.60;2.20;;;19.60;43.50;;;;;;5044924;27;90187;-64
2022/01/14 07:01:11;;;;;;;4.50;2.53;;;19.60;43.50;;;;;;5057701;27;88742;-63
2022/01/14 07:03:40;;;;;;;4.30;2.57;;;19.60;43.50;;;;;;5058196;27;88895;-64
2022/01/14 07:06:08;;;;;;;3.77;3.00;;;19.60;43.50;;;;;;5058014;27;90928;-63
2022/01/14 07:08:36;;;;;;;3.53;2.53;;;19.60;43.50;;;;;;5060711;27;90694;-63
2022/01/14 07:11:06;;;;;;;4.27;2.50;;;19.60;43.50;;;;;;5053933;27;88425;-63
2022/01/14 07:13:34;;;;;;;3.70;2.73;;;19.60;43.50;;;;;;5056203;27;89962;-63
2022/01/14 07:16:04;;;;;;;3.70;2.63;;;19.60;43.50;;;;;;5046556;27;88372;-63
2022/01/14 07:18:32;;;;;;;3.80;2.33;;;19.60;43.50;;;;;;5054571;27;90533;-63
2022/01/14 07:21:00;;;;;;;4.60;2.80;;;19.60;43.50;;;;;;5052120;27;88508;-63
2022/01/14 07:23:28;;;;;;;2.67;2.27;;;19.60;43.50;;;;;;5043746;27;88486;-65
2022/01/14 07:25:56;;;;;;;2.80;2.03;;;19.60;43.50;;;;;;5047939;27;91035;-63
2022/01/14 07:28:25;;;;;;;2.90;2.20;;;19.60;43.50;;;;;;5052534;27;88977;-63
2022/01/14 07:30:53;;;;;;;3.73;2.60;;;19.60;43.50;;;;;;5050234;27;88417;-63
2022/01/14 07:33:22;;;;;;;3.47;2.10;;;19.50;43.40;;;;;;5063331;27;88461;-63
2022/01/14 07:35:50;;;;;;;3.73;2.83;;;19.50;43.40;;;;;;5058029;27;90679;-63
2022/01/14 07:38:18;;;;;;;3.83;2.40;;;19.60;43.50;;;;;;5047121;27;89116;-63
2022/01/14 07:40:45;;;;;;;3.67;2.70;;;19.50;43.50;;;;;;5042590;27;88474;-63
2022/01/14 07:43:14;;;;;;;2.40;1.70;;;19.50;43.50;;;;;;5058886;27;88697;-63
2022/01/14 07:45:43;;;;;;;3.53;2.10;;;19.50;43.50;;;;;;5053694;27;89543;-63
2022/01/14 07:48:11;;;;;;;3.77;2.00;;;19.50;43.50;;;;;;5047095;27;88459;-63
2022/01/14 07:50:39;;;;;;;2.83;2.10;;;19.50;43.50;;;;;;5059015;27;88510;-66
2022/01/14 07:53:07;;;;;;;3.40;2.10;;;19.50;43.50;;;;;;5056769;27;88508;-63
2022/01/14 07:55:35;;;;;;;4.40;2.50;;;19.50;43.50;;;;;;5043370;27;90635;-63
2022/01/14 07:58:04;;;;;;;5.63;2.70;;;19.50;43.50;;;;;;5054758;27;89936;-63
2022/01/14 08:00:32;;;;;;;3.33;2.43;;;19.50;43.60;;;;;;5051417;27;88448;-63
2022/01/14 08:03:01;;;;;;;3.37;2.20;;;19.50;43.70;;;;;;5043081;27;88369;-62
2022/01/14 08:05:29;;;;;;;3.00;2.30;;;19.50;44.30;;;;;;5052153;27;89781;-63
2022/01/14 08:08:03;;;;;;;4.87;3.23;;;19.40;43.70;;;;;;5054915;27;90176;-63
2022/01/14 08:10:31;;;;;;;4.90;2.50;;;19.50;43.90;;;;;;5049619;27;88512;-63
2022/01/14 08:12:59;;;;;;;4.00;2.13;;;19.50;44.00;;;;;;5041561;28;89166;-62
2022/01/14 08:15:31;;;;;;;4.23;1.97;;;19.50;44.10;;;;;;5044665;27;89562;-63
2022/01/14 08:18:00;;;;;;;3.30;2.27;;;19.60;44.20;;;;;;5050671;27;89067;-63
2022/01/14 08:20:30;;;;;;;5.03;2.03;;;19.70;44.40;;;;;;5047337;27;88425;-63
2022/01/14 08:22:58;;;;;;;5.53;2.70;;;19.80;44.40;;;;;;5054654;27;88620;-65
2022/01/14 08:25:26;;;;;;;4.30;2.73;;;20.00;44.50;;;;;;5051508;27;89633;-66
2022/01/14 08:27:54;;;;;;;7.80;2.87;;;20.20;44.60;;;;;;5062874;27;88907;-66
2022/01/14 08:30:22;;;;;;;14.40;5.23;;;20.50;44.70;;;;;;5045187;27;88565;-66
2022/01/14 08:32:50;;;;;;;9.90;4.97;;;20.80;44.90;;;;;;5052350;27;88529;-66
2022/01/14 08:35:18;;;;;;;6.87;3.33;;;21.10;45.00;;;;;;5047997;27;89763;-65
2022/01/14 08:37:48;;;;;;;9.20;3.80;;;21.40;45.00;;;;;;5050404;27;91915;-65
2022/01/14 08:40:16;;;;;;;8.63;4.27;;;21.60;45.00;;;;;;5051256;27;88839;-66
2022/01/14 08:42:51;;;;;;;7.00;3.77;;;21.80;45.00;;;;;;5054500;27;88633;-66
2022/01/14 08:45:21;;;;;;;7.00;3.77;;;21.80;44.90;;;;;;5040373;27;92414;-66
2022/01/14 08:47:51;;;;;;;6.13;3.27;;;21.90;45.00;;;;;;5046349;27;88957;-66
2022/01/14 08:50:21;;;;;;;11.60;3.53;;;22.00;45.00;;;;;;5045112;27;88416;-66
2022/01/14 08:52:50;;;;;;;6.93;2.87;;;22.00;45.00;;;;;;5050262;27;88466;-66
2022/01/14 08:55:18;;;;;;;9.47;3.30;;;22.00;45.00;;;;;;5047792;27;90614;-66
2022/01/14 08:57:46;;;;;;;7.30;2.80;;;22.10;45.10;;;;;;5050169;27;89872;-66
2022/01/14 09:00:15;;;;;;;5.87;3.20;;;22.30;45.10;;;;;;5053415;27;88747;-66
2022/01/14 09:02:49;;;;;;;3.63;2.57;;;22.40;45.00;;;;;;5052670;27;88516;-66
2022/01/14 09:05:17;;;;;;;7.70;3.03;;;22.50;45.00;;;;;;5041249;27;89386;-66
2022/01/14 09:07:45;;;;;;;5.37;2.53;;;22.60;45.60;;;;;;5054788;27;89027;-66
2022/01/14 09:10:15;;;;;;;5.40;2.80;;;22.60;44.90;;;;;;5059947;27;88697;-66
2022/01/14 09:12:43;;;;;;;5.40;2.30;;;22.60;44.80;;;;;;5056922;27;88530;-66
2022/01/14 09:15:12;;;;;;;4.33;2.53;;;22.70;44.90;;;;;;5050474;27;90755;-66
2022/01/14 09:17:40;;;;;;;6.37;2.93;;;22.60;44.80;;;;;;5051312;27;89556;-65
2022/01/14 09:20:09;;;;;;;4.20;2.50;;;22.70;44.80;;;;;;5041572;27;88572;-66
2022/01/14 09:22:37;;;;;;;3.03;2.47;;;22.80;44.70;;;;;;5058075;27;88699;-65
2022/01/14 09:25:06;;;;;;;3.90;2.30;;;22.90;44.60;;;;;;5052975;27;89513;-66
2022/01/14 09:27:36;;;;;;;4.57;2.93;;;23.00;44.50;;;;;;5041437;27;88562;-66
2022/01/14 09:30:05;;;;;;;8.17;2.50;;;23.20;45.10;;;;;;5048492;27;88533;-65
2022/01/14 09:32:33;;;;;;;5.10;2.67;;;23.30;44.30;;;;;;5041772;27;88575;-66
2022/01/14 09:35:03;;;;;;;3.40;2.60;;;23.50;44.20;;;;;;5055530;27;89884;-66
2022/01/14 09:37:31;;;;;;;4.17;2.27;;;23.50;44.00;;;;;;5053532;27;90962;-66
2022/01/14 09:39:59;;;;;;;3.20;2.43;;;23.60;44.00;;;;;;5052943;27;88367;-66
2022/01/14 09:42:27;;;;;;;5.17;2.23;;;23.60;43.90;;;;;;5058580;27;88417;-65
2022/01/14 09:44:56;;;;;;;4.37;1.93;;;23.60;43.90;;;;;;5058875;27;90120;-65
2022/01/14 09:47:24;;;;;;;2.77;2.23;;;23.50;43.80;;;;;;5042059;27;90067;-65
2022/01/14 09:49:52;;;;;;;3.00;2.17;;;23.60;43.90;;;;;;5047112;27;88475;-65
2022/01/14 09:52:20;;;;;;;2.83;1.60;;;23.60;43.80;;;;;;5047004;27;88465;-65
2022/01/14 09:54:50;;;;;;;6.50;2.43;;;23.70;43.80;;;;;;5048673;27;89324;-65
2022/01/14 09:57:18;;;;;;;5.47;2.50;;;23.80;43.70;;;;;;5060159;27;88913;-65
2022/01/14 09:59:46;;;;;;;4.83;2.27;;;23.90;43.60;;;;;;5051731;27;88472;-65
2022/01/14 10:02:34;;;;;;;2.80;2.13;;;24.10;43.60;;;;;;5049265;27;88608;-66
2022/01/14 10:05:02;;;;;;;4.20;2.20;;;24.10;43.40;;;;;;5058693;27;90104;-66
2022/01/14 10:07:32;;;;;;;4.13;2.10;;;24.30;43.30;;;;;;5043215;27;89159;-66
2022/01/14 10:10:01;;;;;;;3.33;2.20;;;24.40;43.30;;;;;;5047810;27;89623;-66
2022/01/14 10:12:32;;;;;;;5.00;2.70;;;24.50;43.20;;;;;;5051163;27;88648;-66
2022/01/14 10:15:01;;;;;;;4.53;2.70;;;24.50;43.10;;;;;;5047599;27;90271;-66
2022/01/14 10:17:37;;;;;;;3.40;2.10;;;24.50;43.00;;;;;;5058847;27;89113;-66
2022/01/14 10:20:08;;;;;;;7.60;2.07;;;24.40;43.00;;;;;;5046733;27;89448;-66
2022/01/14 10:22:40;;;;;;;2.20;1.80;;;24.40;43.00;;;;;;5044516;27;89360;-65
2022/01/14 10:25:09;;;;;;;9.10;2.10;;;24.30;43.00;;;;;;5048975;27;89685;-65
2022/01/14 10:27:38;;;;;;;3.97;2.03;;;24.30;43.00;;;;;;5048260;27;88984;-66
2022/01/14 10:30:16;;;;;;;5.00;2.07;;;24.20;43.00;;;;;;5048850;27;88407;-66
2022/01/14 10:32:48;;;;;;;2.47;2.00;;;24.00;43.00;;;;;;5050273;27;88652;-66
2022/01/14 10:35:18;;;;;;;4.13;1.93;;;24.00;43.10;;;;;;5041184;27;90997;-66
2022/01/14 10:37:46;;;;;;;4.77;2.20;;;23.90;43.20;;;;;;5054756;27;91544;-66
2022/01/14 10:40:16;;;;;;;2.37;1.93;;;23.80;43.20;;;;;;5062966;27;88506;-65
2022/01/14 10:42:45;;;;;;;3.93;1.77;;;23.70;43.20;;;;;;5064429;27;88609;-66
2022/01/14 10:45:22;;;;;;;3.53;2.10;;;23.70;43.30;;;;;;5054677;27;89300;-66
2022/01/14 10:47:57;;;;;;;2.23;1.83;;;23.80;43.40;;;;;;5050025;27;88875;-66
2022/01/14 10:50:33;;;;;;;3.73;2.30;;;23.80;43.30;;;;;;5053296;27;88390;-66
2022/01/14 10:53:01;;;;;;;2.53;1.67;;;23.90;43.30;;;;;;5048650;27;88544;-67
2022/01/14 10:55:32;;;;;;;3.00;2.07;;;24.00;43.20;;;;;;5064690;27;88836;-65
2022/01/14 10:58:01;;;;;;;2.77;2.07;;;24.20;43.20;;;;;;5061136;27;89983;-65
2022/01/14 11:00:47;;;;;;;3.80;2.17;;;24.30;43.00;;;;;;5049422;27;88533;-65
2022/01/14 11:03:17;;;;;;;2.57;2.23;;;24.40;43.00;;;;;;5057037;27;88648;-66
2022/01/14 11:05:45;;;;;;;2.90;2.10;;;24.40;42.90;;;;;;5059542;27;89517;-65
2022/01/14 11:08:13;;;;;;;3.80;1.73;;;24.40;42.90;;;;;;5049563;27;89084;-65
2022/01/14 11:10:43;;;;;;;3.30;1.97;;;24.40;42.90;;;;;;5052696;27;89667;-66
2022/01/14 11:13:12;;;;;;;3.50;2.00;;;24.40;42.90;;;;;;5049269;27;88680;-65
2022/01/14 11:15:40;;;;;;;3.77;1.90;;;24.30;42.80;;;;;;5052068;27;90551;-67
2022/01/14 11:18:10;;;;;;;2.53;1.87;;;24.20;42.80;;;;;;5050815;27;89014;-73
2022/01/14 11:23:21;;;;;;;3.70;1.97;;;24.10;42.90;;;;;;5053844;27;89083;-73
2022/01/14 11:25:59;;;;;;;2.60;1.70;;;24.00;42.90;;;;;;5062030;27;91774;-73
2022/01/14 11:28:29;;;;;;;7.03;2.33;;;23.90;42.90;;;;;;5042797;27;89218;-73
2022/01/14 11:30:57;;;;;;;5.00;2.17;;;23.80;42.90;;;;;;5044278;27;88497;-73
2022/01/14 11:33:41;;;;;;;2.03;1.57;;;23.80;43.00;;;;;;5061329;27;88579;-73
2022/01/14 11:36:11;;;;;;;2.30;2.00;;;23.60;42.90;;;;;;5063209;27;90550;-72
2022/01/14 11:38:41;;;;;;;5.17;2.07;;;23.60;43.00;;;;;;5050596;27;89164;-73
2022/01/14 11:41:12;;;;;;;2.40;1.77;;;23.50;42.90;;;;;;5048254;27;88379;-73
2022/01/14 11:43:49;;;;;;;2.23;1.60;;;23.50;43.00;;;;;;5043278;28;88615;-73
2022/01/14 11:46:43;;;;;;;1.83;1.60;;;23.50;43.00;;;;;;5042693;27;90491;-72
2022/01/14 11:49:35;;;;;;;6.33;2.40;;;23.60;43.10;;;;;;5046456;27;90163;-73
2022/01/14 11:52:06;;;;;;;3.97;2.90;;;23.70;43.00;;;;;;5048669;27;88401;-73
2022/01/14 11:54:42;;;;;;;10.67;3.63;;;23.90;42.90;;;;;;5063998;27;88409;-74
2022/01/14 11:57:11;;;;;;;4.00;3.03;;;24.00;42.90;;;;;;5062809;27;90087;-73
2022/01/14 11:59:46;;;;;;;6.07;3.83;;;24.20;42.80;;;;;;5043091;28;89927;-74
2022/01/14 12:02:38;;;;;;;5.77;3.50;;;24.20;42.60;;;;;;5062274;27;88319;-74
2022/01/14 12:05:25;;;;;;;6.13;3.80;;;24.20;42.50;;;;;;5052071;27;88521;-73
2022/01/14 12:08:22;;;;;;;7.27;4.63;;;24.30;42.50;;;;;;5042639;27;90176;-73
2022/01/14 12:11:10;;;;;;;6.87;5.23;;;24.20;42.40;;;;;;5056998;27;89529;-75
2022/01/14 12:13:40;;;;;;;7.70;5.60;;;24.20;42.40;;;;;;5060130;27;88350;-73
2022/01/14 12:16:37;;;;;;;12.13;6.03;;;24.20;42.50;;;;;;5059742;27;88659;-74
2022/01/14 12:19:09;;;;;;;9.53;6.13;;;24.10;42.50;;;;;;5063706;27;90271;-73
2022/01/14 12:22:03;;;;;;;9.30;6.00;;;24.00;42.40;;;;;;5063281;27;88803;-73
2022/01/14 12:24:34;;;;;;;11.40;6.70;;;23.90;42.40;;;;;;5064222;27;88765;-73
2022/01/14 12:27:42;;;;;;;9.67;6.23;;;23.90;42.50;;;;;;5064185;27;88311;-73
2022/01/14 12:30:33;;;;;;;11.23;7.13;;;23.70;42.50;;;;;;5053342;27;89482;-72
2022/01/14 12:33:01;;;;;;;11.93;6.70;;;23.70;42.50;;;;;;5052794;27;89169;-73
2022/01/14 12:35:34;;;;;;;10.83;6.67;;;23.60;42.50;;;;;;5063286;27;88411;-73
2022/01/14 12:38:02;;;;;;;10.30;6.23;;;23.50;42.60;;;;;;5063175;27;88527;-73
2022/01/14 12:40:37;;;;;;;14.33;6.70;;;23.50;42.60;;;;;;5057661;27;89593;-73
2022/01/14 12:43:12;;;;;;;8.93;6.27;;;23.40;42.60;;;;;;5042070;27;90131;-73
2022/01/14 12:45:51;;;;;;;15.37;6.47;;;23.40;42.70;;;;;;5042686;28;88327;-73
2022/01/14 12:48:32;;;;;;;11.17;6.43;;;23.40;42.70;;;;;;5043987;27;88559;-73
2022/01/14 12:51:05;;;;;;;8.30;6.40;;;23.50;42.80;;;;;;5053978;27;90533;-73
2022/01/14 12:53:33;;;;;;;9.63;6.40;;;23.50;42.70;;;;;;5045697;27;90027;-74
2022/01/14 12:56:05;;;;;;;9.17;6.00;;;23.70;42.70;;;;;;5062981;27;88421;-73
2022/01/14 12:58:51;;;;;;;15.83;6.00;;;23.80;42.70;;;;;;5062673;27;88368;-74
2022/01/14 13:01:19;;;;;;;10.40;5.87;;;24.00;42.70;;;;;;5061219;27;93642;-73
2022/01/14 13:03:48;;;;;;;10.80;5.70;;;24.10;42.70;;;;;;5063010;27;88805;-73
2022/01/14 13:06:16;;;;;;;8.83;6.17;;;24.20;42.70;;;;;;5062765;27;88283;-73
2022/01/14 13:08:53;;;;;;;11.07;5.97;;;24.20;42.70;;;;;;5062456;27;88426;-73
2022/01/14 13:11:23;;;;;;;8.90;5.07;;;24.20;42.70;;;;;;5060339;27;90254;-73
2022/01/14 13:13:59;;;;;;;8.00;5.13;;;24.20;42.70;;;;;;5053561;27;89296;-73
2022/01/14 13:16:27;;;;;;;7.63;5.00;;;24.20;42.80;;;;;;5051082;27;88650;-73
2022/01/14 13:18:55;;;;;;;10.33;5.70;;;24.20;42.80;;;;;;5046649;27;88898;-73